createdAt,value
2022-09-06T00:01:46.624Z,2.00
2022-09-06T00:04:15.454Z,1.98
2022-09-06T00:06:42.146Z,2.30
2022-09-06T00:09:08.647Z,2.05
2022-09-06T00:11:35.113Z,2.20
2022-09-06T00:14:01.617Z,2.20
2022-09-06T00:16:30.426Z,1.90
2022-09-06T00:18:57.152Z,2.00
2022-09-06T00:21:23.611Z,1.90
2022-09-06T00:23:50.102Z,1.90
2022-09-06T00:26:16.566Z,1.77
2022-09-06T00:28:43.045Z,2.53
2022-09-06T00:31:09.543Z,2.60
2022-09-06T00:33:36.082Z,1.88
2022-09-06T00:36:02.553Z,1.60
2022-09-06T00:38:29.042Z,1.63
2022-09-06T00:40:55.495Z,1.25
2022-09-06T00:43:21.976Z,1.75
2022-09-06T00:45:48.469Z,2.33
2022-09-06T00:48:14.955Z,2.28
2022-09-06T00:50:41.417Z,2.35
2022-09-06T00:53:07.894Z,2.85
2022-09-06T00:55:34.349Z,2.58
2022-09-06T00:58:00.822Z,2.88
2022-09-06T01:00:27.290Z,2.30
2022-09-06T01:02:53.831Z,3.38
2022-09-06T01:05:20.360Z,2.67
2022-09-06T01:07:46.822Z,2.45
2022-09-06T01:10:13.294Z,2.50
2022-09-06T01:12:39.748Z,2.38
2022-09-06T01:15:06.221Z,2.97
2022-09-06T01:17:32.690Z,2.47
2022-09-06T01:19:59.164Z,3.00
2022-09-06T01:22:25.641Z,2.75
2022-09-06T01:24:52.116Z,3.30
2022-09-06T01:27:18.581Z,3.60
2022-09-06T01:29:45.049Z,2.65
2022-09-06T01:32:11.510Z,2.70
2022-09-06T01:34:37.986Z,2.25
2022-09-06T01:37:10.256Z,2.80
2022-09-06T01:39:37.082Z,2.50
2022-09-06T01:42:03.635Z,2.40
2022-09-06T01:44:30.100Z,2.80
2022-09-06T01:46:56.577Z,2.83
2022-09-06T01:49:23.041Z,2.60
2022-09-06T01:51:49.558Z,2.70
2022-09-06T01:54:16.016Z,2.20
2022-09-06T01:56:42.493Z,1.95
2022-09-06T01:59:08.945Z,1.50
2022-09-06T02:01:35.483Z,1.20
2022-09-06T02:04:01.968Z,1.10
2022-09-06T02:06:28.437Z,1.13
2022-09-06T02:08:54.908Z,1.90
2022-09-06T02:11:21.380Z,2.80
2022-09-06T02:13:47.848Z,2.47
2022-09-06T02:16:14.416Z,2.92
2022-09-06T02:18:40.926Z,3.00
2022-09-06T02:21:07.393Z,1.75
2022-09-06T02:23:33.867Z,2.00
2022-09-06T02:26:00.325Z,2.13
2022-09-06T02:28:26.846Z,1.70
2022-09-06T02:30:53.426Z,1.45
2022-09-06T02:33:19.942Z,2.40
2022-09-06T02:35:46.402Z,2.63
2022-09-06T02:38:12.875Z,1.80
2022-09-06T02:40:39.334Z,1.92
2022-09-06T02:43:05.806Z,2.25
2022-09-06T02:45:32.260Z,1.60
2022-09-06T02:47:58.734Z,1.50
2022-09-06T02:50:25.197Z,1.60
2022-09-06T02:52:51.675Z,1.90
2022-09-06T02:55:18.146Z,1.42
2022-09-06T02:57:44.611Z,1.30
2022-09-06T03:00:11.078Z,1.88
2022-09-06T03:02:37.604Z,1.23
2022-09-06T03:05:04.119Z,1.25
2022-09-06T03:07:30.589Z,1.05
2022-09-06T03:09:57.060Z,1.60
2022-09-06T03:12:23.540Z,1.40
2022-09-06T03:14:54.277Z,1.13
2022-09-06T03:17:21.388Z,1.80
2022-09-06T03:19:47.851Z,1.42
2022-09-06T03:22:14.333Z,1.40
2022-09-06T03:24:40.798Z,1.55
2022-09-06T03:27:07.256Z,1.30
2022-09-06T03:29:33.727Z,1.20
2022-09-06T03:32:00.188Z,1.15
2022-09-06T03:34:26.657Z,1.30
2022-09-06T03:36:53.119Z,1.33
2022-09-06T03:39:19.596Z,1.40
2022-09-06T03:41:46.064Z,1.10
2022-09-06T03:44:12.545Z,1.30
2022-09-06T03:46:39.009Z,1.67
2022-09-06T03:49:05.484Z,1.40
2022-09-06T03:51:31.943Z,1.70
2022-09-06T03:53:58.422Z,1.60
2022-09-06T03:56:24.883Z,1.50
2022-09-06T03:58:51.365Z,1.40
2022-09-06T04:01:17.883Z,1.60
2022-09-06T04:03:44.370Z,1.30
2022-09-06T04:06:10.829Z,1.35
2022-09-06T04:08:37.296Z,1.30
2022-09-06T04:11:03.756Z,1.40
2022-09-06T04:13:30.240Z,1.58
2022-09-06T04:15:56.698Z,1.40
2022-09-06T04:18:23.306Z,2.00
2022-09-06T04:20:49.811Z,1.70
2022-09-06T04:23:16.308Z,1.70
2022-09-06T04:25:42.770Z,1.60
2022-09-06T04:28:09.242Z,1.70
2022-09-06T04:30:35.696Z,2.10
2022-09-06T04:33:02.169Z,1.40
2022-09-06T04:35:28.629Z,1.30
2022-09-06T04:37:55.107Z,1.30
2022-09-06T04:40:21.569Z,1.60
2022-09-06T04:42:48.037Z,1.73
2022-09-06T04:45:14.497Z,1.50
2022-09-06T04:47:40.979Z,2.42
2022-09-06T04:50:07.445Z,2.38
2022-09-06T04:52:33.908Z,2.70
2022-09-06T04:55:00.377Z,2.10
2022-09-06T04:57:26.839Z,1.90
2022-09-06T04:59:53.310Z,1.30
2022-09-06T05:02:19.809Z,1.90
2022-09-06T05:04:46.309Z,2.00
2022-09-06T05:07:12.771Z,2.17
2022-09-06T05:09:39.245Z,3.28
2022-09-06T05:12:05.707Z,3.20
2022-09-06T05:14:32.177Z,2.50
2022-09-06T05:16:58.726Z,2.05
2022-09-06T05:19:25.247Z,2.58
2022-09-06T05:21:51.707Z,2.70
2022-09-06T05:24:18.181Z,3.35
2022-09-06T05:26:44.641Z,3.47
2022-09-06T05:29:11.110Z,3.67
2022-09-06T05:31:37.653Z,3.95
2022-09-06T05:34:04.189Z,4.10
2022-09-06T05:36:30.657Z,2.75
2022-09-06T05:38:57.129Z,2.30
2022-09-06T05:41:23.592Z,1.90
2022-09-06T05:43:50.063Z,2.45
2022-09-06T05:46:16.569Z,3.65
2022-09-06T05:48:43.075Z,3.80
2022-09-06T05:51:09.540Z,3.10
2022-09-06T05:53:36.018Z,3.75
2022-09-06T05:56:02.483Z,4.13
2022-09-06T05:58:29.054Z,3.38
2022-09-06T06:00:55.626Z,3.30
2022-09-06T06:03:22.124Z,3.00
2022-09-06T06:05:48.598Z,3.17
2022-09-06T06:08:15.052Z,2.60
2022-09-06T06:10:41.532Z,1.70
2022-09-06T06:13:07.999Z,2.10
2022-09-06T06:15:34.487Z,2.58
2022-09-06T06:18:00.957Z,4.07
2022-09-06T06:20:27.426Z,3.50
2022-09-06T06:22:53.892Z,3.05
2022-09-06T06:25:20.362Z,4.07
2022-09-06T06:27:46.838Z,2.47
2022-09-06T06:30:17.762Z,2.00
2022-09-06T06:32:44.852Z,2.05
2022-09-06T06:35:11.345Z,1.77
2022-09-06T06:37:37.810Z,1.70
2022-09-06T06:40:04.344Z,1.30
2022-09-06T06:42:30.865Z,1.65
2022-09-06T06:44:57.334Z,1.58
2022-09-06T06:47:23.798Z,1.52
2022-09-06T06:49:50.300Z,1.20
2022-09-06T06:52:16.761Z,1.30
2022-09-06T06:54:43.237Z,1.30
2022-09-06T06:57:09.706Z,1.77
2022-09-06T06:59:36.187Z,1.17
2022-09-06T07:02:02.771Z,1.27
2022-09-06T07:04:29.374Z,1.80
2022-09-06T07:12:28.737Z,2.13
2022-09-06T07:14:55.209Z,1.50
2022-09-06T07:17:21.669Z,1.90
2022-09-06T07:22:34.595Z,1.10
2022-09-06T07:25:01.072Z,1.77
2022-09-06T07:30:13.986Z,2.30
2022-09-06T07:32:40.455Z,1.90
2022-09-06T07:35:06.919Z,1.95
2022-09-06T07:37:33.381Z,1.65
2022-09-06T07:39:59.907Z,1.58
2022-09-06T07:42:26.421Z,2.63
2022-09-06T07:44:52.946Z,2.05
2022-09-06T07:53:10.777Z,1.92
2022-09-06T07:55:38.880Z,1.75
2022-09-06T07:58:05.339Z,1.45
2022-09-06T08:00:31.807Z,2.08
2022-09-06T08:02:58.268Z,2.05
2022-09-06T08:10:57.633Z,1.50
2022-09-06T08:13:24.119Z,1.70
2022-09-06T08:15:50.631Z,1.58
2022-09-06T08:18:17.165Z,1.30
2022-09-06T08:20:43.629Z,1.38
2022-09-06T08:23:10.095Z,1.25
2022-09-06T08:25:36.575Z,1.27
2022-09-06T08:28:03.046Z,1.45
2022-09-06T08:30:29.615Z,1.80
2022-09-06T08:32:56.076Z,1.33
2022-09-06T08:35:22.549Z,1.45
2022-09-06T08:37:49.022Z,1.67
2022-09-06T08:40:15.631Z,1.70
2022-09-06T08:42:42.094Z,1.83
2022-09-06T08:45:08.556Z,3.05
2022-09-06T08:47:35.063Z,1.95
2022-09-06T08:50:01.568Z,2.50
2022-09-06T08:52:28.036Z,2.45
2022-09-06T08:54:54.497Z,1.92
2022-09-06T08:57:20.964Z,2.60
2022-09-06T08:59:47.424Z,1.95
2022-09-06T09:02:13.987Z,1.58
2022-09-06T09:04:40.518Z,1.98
2022-09-06T09:07:06.988Z,1.40
2022-09-06T09:09:33.448Z,1.50
2022-09-06T09:11:59.926Z,1.40
2022-09-06T09:14:26.393Z,1.10
2022-09-06T09:16:52.880Z,1.23
2022-09-06T09:19:19.345Z,1.40
2022-09-06T09:21:45.818Z,1.10
2022-09-06T09:24:12.308Z,1.33
2022-09-06T09:26:38.787Z,1.50
2022-09-06T09:29:05.245Z,1.40
2022-09-06T09:31:31.760Z,1.45
2022-09-06T09:33:58.260Z,1.30
2022-09-06T09:36:24.734Z,1.60
2022-09-06T09:38:51.204Z,1.30
2022-09-06T09:41:17.678Z,1.00
2022-09-06T09:43:44.149Z,2.00
2022-09-06T09:46:10.680Z,1.40
2022-09-06T09:48:37.160Z,1.55
2022-09-06T09:51:03.619Z,1.20
2022-09-06T09:53:30.101Z,1.20
2022-09-06T09:55:56.573Z,1.30
2022-09-06T09:58:23.110Z,1.25
2022-09-06T10:00:49.686Z,1.00
2022-09-06T10:03:16.210Z,1.33
2022-09-06T10:05:42.681Z,1.40
2022-09-06T10:08:09.166Z,1.83
2022-09-06T10:10:35.635Z,1.20
2022-09-06T10:13:02.107Z,1.00
2022-09-06T10:15:28.575Z,1.30
2022-09-06T10:17:55.049Z,2.60
2022-09-06T10:20:21.501Z,1.52
2022-09-06T10:22:47.965Z,1.88
2022-09-06T10:25:14.450Z,1.80
2022-09-06T10:27:55.453Z,1.73
2022-09-06T10:30:27.384Z,1.35
2022-09-06T10:32:53.852Z,1.40
2022-09-06T10:35:20.350Z,1.25
2022-09-06T10:37:46.823Z,1.27
2022-09-06T10:40:13.448Z,1.35
2022-09-06T10:42:39.971Z,1.20
2022-09-06T10:45:06.460Z,1.67
2022-09-06T10:47:32.941Z,1.30
2022-09-06T10:49:59.423Z,1.20
2022-09-06T10:52:25.898Z,1.25
2022-09-06T10:54:52.363Z,1.20
2022-09-06T11:00:05.300Z,1.10
2022-09-06T11:02:31.902Z,1.10
2022-09-06T11:10:31.366Z,1.40
2022-09-06T11:12:57.827Z,1.20
2022-09-06T11:15:24.302Z,1.02
2022-09-06T11:17:50.783Z,1.10
2022-09-06T11:20:17.266Z,0.98
2022-09-06T11:22:43.737Z,0.68
2022-09-06T11:25:10.214Z,0.90
2022-09-06T11:27:36.684Z,0.75
2022-09-06T11:30:03.158Z,0.90
2022-09-06T11:32:29.632Z,0.80
2022-09-06T11:34:56.274Z,0.70
2022-09-06T11:37:22.757Z,1.00
2022-09-06T11:42:35.684Z,1.00
2022-09-06T11:45:02.171Z,1.10
2022-09-06T11:47:28.634Z,0.80
2022-09-06T11:49:55.115Z,0.93
2022-09-06T11:52:21.580Z,0.82
2022-09-06T11:54:48.060Z,0.60
2022-09-06T11:57:14.537Z,0.90
2022-09-06T11:59:41.015Z,0.88
2022-09-06T12:02:07.472Z,0.82
2022-09-06T12:04:33.931Z,0.90
2022-09-06T12:07:00.383Z,1.00
2022-09-06T12:09:26.847Z,0.80
2022-09-06T12:11:53.331Z,0.60
2022-09-06T12:14:19.798Z,1.02
2022-09-06T12:16:46.277Z,1.02
2022-09-06T12:19:12.743Z,0.93
2022-09-06T12:21:39.230Z,0.93
2022-09-06T12:24:05.689Z,1.15
2022-09-06T12:26:32.175Z,1.10
2022-09-06T12:28:58.659Z,1.02
2022-09-06T12:31:25.190Z,0.70
2022-09-06T12:33:51.675Z,0.90
2022-09-06T12:36:18.154Z,0.73
2022-09-06T12:38:44.615Z,0.80
2022-09-06T12:41:11.088Z,1.00
2022-09-06T12:43:37.547Z,0.90
2022-09-06T12:46:04.052Z,1.30
2022-09-06T12:48:30.731Z,1.20
2022-09-06T12:50:57.343Z,1.20
2022-09-06T12:53:23.830Z,1.25
2022-09-06T12:55:50.302Z,1.10
2022-09-06T12:58:16.774Z,1.27
2022-09-06T13:00:43.239Z,1.38
2022-09-06T13:03:09.719Z,0.80
2022-09-06T13:05:36.178Z,0.95
2022-09-06T13:08:02.653Z,1.02
2022-09-06T13:10:29.112Z,1.20
2022-09-06T13:12:55.598Z,1.00
2022-09-06T13:15:22.056Z,1.10
2022-09-06T13:17:48.523Z,0.90
2022-09-06T13:20:14.989Z,0.80
2022-09-06T13:22:41.467Z,0.70
2022-09-06T13:25:07.923Z,0.77
2022-09-06T13:27:34.401Z,1.00
2022-09-06T13:30:00.930Z,0.80
2022-09-06T13:32:27.467Z,0.82
2022-09-06T13:34:53.926Z,0.98
2022-09-06T13:37:20.398Z,0.85
2022-09-06T13:39:46.903Z,0.80
2022-09-06T13:42:13.399Z,1.00
2022-09-06T13:44:39.862Z,0.90
2022-09-06T13:47:06.345Z,0.60
2022-09-06T13:49:32.803Z,0.80
2022-09-06T13:51:59.283Z,0.65
2022-09-06T13:54:25.750Z,0.90
2022-09-06T13:56:52.247Z,0.60
2022-09-06T13:59:18.722Z,1.00
2022-09-06T14:01:45.222Z,0.95
2022-09-06T14:04:11.772Z,1.08
2022-09-06T14:06:38.252Z,1.02
2022-09-06T14:09:08.660Z,0.80
2022-09-06T14:11:35.497Z,1.15
2022-09-06T14:14:01.976Z,1.00
2022-09-06T14:16:28.458Z,1.20
2022-09-06T14:18:54.934Z,1.10
2022-09-06T14:21:21.399Z,1.13
2022-09-06T14:23:47.880Z,0.80
2022-09-06T14:26:14.340Z,0.73
2022-09-06T14:28:40.814Z,0.75
2022-09-06T14:31:07.354Z,0.73
2022-09-06T14:33:33.868Z,0.80
2022-09-06T14:36:00.344Z,0.90
2022-09-06T14:38:26.868Z,1.02
2022-09-06T14:40:53.376Z,0.80
2022-09-06T14:43:19.850Z,1.08
2022-09-06T14:45:46.320Z,1.17
2022-09-06T14:48:12.833Z,1.10
2022-09-06T14:50:39.295Z,1.17
2022-09-06T14:53:15.049Z,0.85
2022-09-06T14:55:50.708Z,0.80
2022-09-06T14:58:17.177Z,0.90
2022-09-06T15:00:43.633Z,0.80
2022-09-06T15:03:10.103Z,0.80
2022-09-06T15:05:36.561Z,0.80
2022-09-06T15:08:03.040Z,0.70
2022-09-06T15:10:29.518Z,0.80
2022-09-06T15:12:55.983Z,0.70
2022-09-06T15:15:22.499Z,0.57
2022-09-06T15:17:49.030Z,1.00
2022-09-06T15:20:15.494Z,0.50
2022-09-06T15:22:41.969Z,0.77
2022-09-06T15:25:08.445Z,0.80
2022-09-06T15:27:34.919Z,0.63
2022-09-06T15:30:01.381Z,0.65
2022-09-06T15:32:27.841Z,0.60
2022-09-06T15:34:54.322Z,0.80
2022-09-06T15:37:20.826Z,0.70
2022-09-06T15:39:47.377Z,0.70
2022-09-06T15:42:13.877Z,0.80
2022-09-06T15:44:40.346Z,0.90
2022-09-06T15:47:06.803Z,0.80
2022-09-06T15:49:33.307Z,0.70
2022-09-06T15:51:59.765Z,0.65
2022-09-06T15:54:26.223Z,0.68
2022-09-06T15:56:52.712Z,0.60
2022-09-06T15:59:19.180Z,0.77
2022-09-06T16:01:45.747Z,0.70
2022-09-06T16:04:12.238Z,0.47
2022-09-06T16:06:38.712Z,0.52
2022-09-06T16:09:05.168Z,0.93
2022-09-06T16:11:31.637Z,0.80
2022-09-06T16:13:58.093Z,0.85
2022-09-06T16:16:24.644Z,0.80
2022-09-06T16:18:51.153Z,1.00
2022-09-06T16:21:17.628Z,0.50
2022-09-06T16:23:44.085Z,0.65
2022-09-06T16:26:10.556Z,0.95
2022-09-06T16:28:37.020Z,0.90
2022-09-06T16:31:03.543Z,0.80
2022-09-06T16:33:30.077Z,1.00
2022-09-06T16:35:56.541Z,0.75
2022-09-06T16:38:23.053Z,0.80
2022-09-06T16:40:49.526Z,0.60
2022-09-06T16:43:16.037Z,0.70
2022-09-06T16:45:42.558Z,0.70
2022-09-06T16:48:09.074Z,0.60
2022-09-06T16:50:35.533Z,0.80
2022-09-06T16:53:02.020Z,0.60
2022-09-06T16:55:28.481Z,0.57
2022-09-06T16:57:54.945Z,0.43
2022-09-06T17:00:21.418Z,0.52
2022-09-06T17:02:47.940Z,0.68
2022-09-06T17:05:14.449Z,0.82
2022-09-06T17:07:40.908Z,0.60
2022-09-06T17:10:07.377Z,0.50
2022-09-06T17:12:33.831Z,0.73
2022-09-06T17:15:00.551Z,0.80
2022-09-06T17:17:27.021Z,0.63
2022-09-06T17:19:53.479Z,0.60
2022-09-06T17:22:19.947Z,0.50
2022-09-06T17:24:46.405Z,0.70
2022-09-06T17:27:12.877Z,0.80
2022-09-06T17:29:39.339Z,0.70
2022-09-06T17:32:05.810Z,0.82
2022-09-06T17:34:32.271Z,0.60
2022-09-06T17:36:58.743Z,0.47
2022-09-06T17:39:25.256Z,0.70
2022-09-06T17:41:51.781Z,0.77
2022-09-06T17:44:18.243Z,0.98
2022-09-06T17:47:02.865Z,0.75
2022-09-06T17:49:31.152Z,0.90
2022-09-06T17:51:57.637Z,0.90
2022-09-06T17:54:24.102Z,0.77
2022-09-06T17:56:50.559Z,0.70
2022-09-06T17:59:17.035Z,1.00
2022-09-06T18:01:43.538Z,0.80
2022-09-06T18:04:10.047Z,1.10
2022-09-06T18:06:36.528Z,1.17
2022-09-06T18:09:03.004Z,1.40
2022-09-06T18:11:29.465Z,1.58
2022-09-06T18:13:55.939Z,1.30
2022-09-06T18:16:22.429Z,1.20
2022-09-06T18:18:48.910Z,1.00
2022-09-06T18:21:15.369Z,0.80
2022-09-06T18:23:41.837Z,1.10
2022-09-06T18:26:08.293Z,0.82
2022-09-06T18:28:34.775Z,1.08
2022-09-06T18:31:01.233Z,0.88
2022-09-06T18:33:27.701Z,0.88
2022-09-06T18:35:54.155Z,0.68
2022-09-06T18:38:20.633Z,0.85
2022-09-06T18:40:47.084Z,1.30
2022-09-06T18:43:13.560Z,1.40
2022-09-06T18:45:40.059Z,1.55
2022-09-06T18:48:06.562Z,1.10
2022-09-06T18:50:33.026Z,1.20
2022-09-06T18:52:59.503Z,1.00
2022-09-06T18:55:25.956Z,0.98
2022-09-06T18:57:52.422Z,1.20
2022-09-06T19:00:18.884Z,0.85
2022-09-06T19:02:45.360Z,1.20
2022-09-06T19:05:11.818Z,1.10
2022-09-06T19:07:38.290Z,1.30
2022-09-06T19:10:04.750Z,1.65
2022-09-06T19:12:31.200Z,1.30
2022-09-06T19:14:57.674Z,2.08
2022-09-06T19:17:24.137Z,1.90
2022-09-06T19:19:50.609Z,1.90
2022-09-06T19:22:17.059Z,1.20
2022-09-06T19:24:43.528Z,1.52
2022-09-06T19:27:09.994Z,1.50
2022-09-06T19:29:36.465Z,1.58
2022-09-06T19:32:02.980Z,1.65
2022-09-06T19:34:29.477Z,1.70
2022-09-06T19:36:55.948Z,2.30
2022-09-06T19:39:22.423Z,2.25
2022-09-06T19:41:48.918Z,2.85
2022-09-06T19:44:15.393Z,1.83
2022-09-06T19:46:45.470Z,2.05
2022-09-06T19:49:12.570Z,1.70
2022-09-06T19:51:39.030Z,2.00
2022-09-06T19:54:05.501Z,1.50
2022-09-06T19:56:31.965Z,1.95
2022-09-06T19:58:58.444Z,2.30
2022-09-06T20:01:24.991Z,1.98
2022-09-06T20:03:51.484Z,2.00
2022-09-06T20:06:17.953Z,2.03
2022-09-06T20:08:44.428Z,2.33
2022-09-06T20:11:10.889Z,2.45
2022-09-06T20:13:37.390Z,2.10
2022-09-06T20:16:03.904Z,1.90
2022-09-06T20:18:30.522Z,2.30
2022-09-06T20:20:57.100Z,2.05
2022-09-06T20:23:23.559Z,1.88
2022-09-06T20:25:50.034Z,2.00
2022-09-06T20:28:16.496Z,2.10
2022-09-06T20:30:42.968Z,2.35
2022-09-06T20:33:09.438Z,2.25
2022-09-06T20:35:35.905Z,1.90
2022-09-06T20:38:02.354Z,2.10
2022-09-06T20:40:28.820Z,1.90
2022-09-06T20:42:55.272Z,1.75
2022-09-06T20:45:21.736Z,1.70
2022-09-06T20:47:48.194Z,1.30
2022-09-06T20:50:14.665Z,1.80
2022-09-06T20:52:41.145Z,1.67
2022-09-06T20:55:07.619Z,1.73
2022-09-06T20:57:34.109Z,1.60
2022-09-06T21:00:00.593Z,1.30
2022-09-06T21:02:27.090Z,1.83
2022-09-06T21:04:53.593Z,1.70
2022-09-06T21:07:20.059Z,1.50
2022-09-06T21:09:46.540Z,1.95
2022-09-06T21:12:12.987Z,1.63
2022-09-06T21:14:39.449Z,1.20
2022-09-06T21:17:05.918Z,1.50
2022-09-06T21:19:32.395Z,1.60
2022-09-06T21:21:59.875Z,2.00
2022-09-06T21:24:26.339Z,2.42
2022-09-06T21:26:52.808Z,1.83
2022-09-06T21:29:19.265Z,2.88
2022-09-06T21:31:45.809Z,2.70
2022-09-06T21:34:16.578Z,2.10
2022-09-06T21:36:43.554Z,2.50
2022-09-06T21:39:10.022Z,1.88
2022-09-06T21:41:36.494Z,2.70
2022-09-06T21:44:02.966Z,2.67
2022-09-06T21:46:32.814Z,3.30
2022-09-06T21:48:59.797Z,2.03
2022-09-06T21:51:26.269Z,2.70
2022-09-06T21:53:52.738Z,2.38
2022-09-06T21:56:19.214Z,2.80
2022-09-06T21:58:45.673Z,3.15
2022-09-06T22:01:12.224Z,2.70
2022-09-06T22:03:38.747Z,2.60
2022-09-06T22:06:05.213Z,1.90
2022-09-06T22:08:31.672Z,1.50
2022-09-06T22:10:58.141Z,1.70
2022-09-06T22:13:24.597Z,1.40
2022-09-06T22:15:51.142Z,2.03
2022-09-06T22:18:17.604Z,2.03
2022-09-06T22:20:44.082Z,1.67
2022-09-06T22:23:10.548Z,1.40
2022-09-06T22:25:37.012Z,1.27
2022-09-06T22:28:03.488Z,1.70
2022-09-06T22:30:29.971Z,1.80
2022-09-06T22:32:56.441Z,1.85
2022-09-06T22:35:22.908Z,1.75
2022-09-06T22:37:49.386Z,2.00
2022-09-06T22:40:15.846Z,1.67
2022-09-06T22:42:42.320Z,2.17
2022-09-06T22:45:08.781Z,1.80
2022-09-06T22:47:35.270Z,1.80
2022-09-06T22:50:01.729Z,2.00
2022-09-06T22:52:28.210Z,2.70
2022-09-06T22:54:54.671Z,2.75
2022-09-06T22:57:21.141Z,2.13
2022-09-06T22:59:47.597Z,2.47
2022-09-06T23:02:14.074Z,2.65
2022-09-06T23:04:40.591Z,2.30
2022-09-06T23:07:07.095Z,2.70
2022-09-06T23:09:33.573Z,3.50
2022-09-06T23:12:00.039Z,2.78
2022-09-06T23:14:26.512Z,3.10
2022-09-06T23:16:52.977Z,2.72
2022-09-06T23:19:19.432Z,3.72
2022-09-06T23:21:45.913Z,3.38
2022-09-06T23:24:12.370Z,3.20
2022-09-06T23:26:38.852Z,2.78
2022-09-06T23:29:05.316Z,3.28
2022-09-06T23:31:31.850Z,2.88
2022-09-06T23:33:58.335Z,3.10
2022-09-06T23:36:24.796Z,3.08
2022-09-06T23:38:51.267Z,2.70
2022-09-06T23:41:17.733Z,2.80
2022-09-06T23:43:44.207Z,2.50
2022-09-06T23:46:10.741Z,2.85
2022-09-06T23:48:37.250Z,3.15
2022-09-06T23:51:03.706Z,2.28
2022-09-06T23:53:30.177Z,2.42
2022-09-06T23:55:56.631Z,3.08
2022-09-06T23:58:23.106Z,2.40
